Time;durP1;ratioP1;P1;durP2;ratioP2;P2;SDS_P1;SDS_P2;PMS_P1;PMS_P2;Temp;Humidity;BMP_temperature;BMP_pressure;BME280_temperature;BME280_humidity;BME280_pressure;Samples;Min_cycle;Max_cycle;Signal;HPM_P1;HPM_P2
2022/10/14 00:01:15;;;;;;;20.70;10.50;;;;;;;;;;7386125;19;20040;-68
2022/10/14 00:03:41;;;;;;;17.00;9.82;;;;;;;;;;7386660;19;20076;-69
2022/10/14 00:06:09;;;;;;;17.27;9.38;;;;;;;;;;7388066;19;20002;-70
2022/10/14 00:08:34;;;;;;;16.27;9.32;;;;;;;;;;7388253;19;19994;-69
2022/10/14 00:11:11;;;;;;;13.63;8.02;;;;;;;;;;7385891;19;20033;-68
2022/10/14 00:13:38;;;;;;;16.45;7.38;;;;;;;;;;7387996;19;19994;-70
2022/10/14 00:16:04;;;;;;;10.55;6.82;;;;;;;;;;7386117;19;20002;-68
2022/10/14 00:18:30;;;;;;;13.80;7.10;;;;;;;;;;7386564;19;20523;-69
2022/10/14 00:21:00;;;;;;;12.63;7.25;;;;;;;;;;7385838;19;20009;-69
2022/10/14 00:23:27;;;;;;;12.00;7.35;;;;;;;;;;7386978;19;20026;-68
2022/10/14 00:25:52;;;;;;;13.88;7.10;;;;;;;;;;7383529;19;19995;-69
2022/10/14 00:28:18;;;;;;;15.98;7.85;;;;;;;;;;7386737;19;19999;-68
2022/10/14 00:31:00;;;;;;;15.55;9.25;;;;;;;;;;7384807;19;20458;-69
2022/10/14 00:33:27;;;;;;;13.05;7.70;;;;;;;;;;7383733;19;19995;-69
2022/10/14 00:35:58;;;;;;;18.02;8.68;;;;;;;;;;7384043;19;20333;-70
2022/10/14 00:38:24;;;;;;;14.88;9.07;;;;;;;;;;7380432;19;20838;-69
2022/10/14 00:40:50;;;;;;;18.83;10.45;;;;;;;;;;7386317;19;20017;-68
2022/10/14 00:43:15;;;;;;;18.45;10.55;;;;;;;;;;7385956;19;19999;-69
2022/10/14 00:45:41;;;;;;;18.35;10.98;;;;;;;;;;7386747;19;20068;-68
2022/10/14 00:48:08;;;;;;;18.38;10.27;;;;;;;;;;7385464;19;20441;-68
2022/10/14 00:50:34;;;;;;;18.40;10.25;;;;;;;;;;7384112;19;20456;-68
2022/10/14 00:53:02;;;;;;;19.35;11.25;;;;;;;;;;7383381;19;19995;-68
2022/10/14 00:55:28;;;;;;;18.30;11.00;;;;;;;;;;7392487;19;20666;-68
2022/10/14 00:57:54;;;;;;;19.38;11.07;;;;;;;;;;7392737;19;19995;-69
2022/10/14 01:00:21;;;;;;;19.30;11.65;;;;;;;;;;7394892;19;20369;-68
2022/10/14 01:02:47;;;;;;;18.90;11.68;;;;;;;;;;7391093;19;20453;-68
2022/10/14 01:05:14;;;;;;;20.10;12.15;;;;;;;;;;7394003;19;19998;-68
2022/10/14 01:08:02;;;;;;;21.17;12.00;;;;;;;;;;7393693;19;20024;-69
2022/10/14 01:11:08;;;;;;;19.67;11.85;;;;;;;;;;7392878;19;20350;-67
2022/10/14 01:13:39;;;;;;;21.30;11.60;;;;;;;;;;7389821;19;20071;-67
2022/10/14 01:16:26;;;;;;;20.25;12.32;;;;;;;;;;7392593;19;20466;-69
2022/10/14 01:19:10;;;;;;;19.50;11.13;;;;;;;;;;7389836;19;19995;-68
2022/10/14 01:21:40;;;;;;;19.30;11.35;;;;;;;;;;7388434;19;20062;-68
2022/10/14 01:24:24;;;;;;;19.15;11.80;;;;;;;;;;7393283;19;20002;-67
2022/10/14 01:27:11;;;;;;;18.10;11.68;;;;;;;;;;7393576;19;20002;-68
2022/10/14 01:29:55;;;;;;;20.08;11.38;;;;;;;;;;7391723;19;20388;-68
2022/10/14 01:32:27;;;;;;;19.52;11.48;;;;;;;;;;7392032;19;20003;-69
2022/10/14 01:35:01;;;;;;;17.02;11.60;;;;;;;;;;7393252;19;20029;-68
2022/10/14 01:37:29;;;;;;;20.13;11.30;;;;;;;;;;7394041;19;20419;-68
2022/10/14 01:40:00;;;;;;;18.35;10.70;;;;;;;;;;7393075;19;20531;-68
2022/10/14 01:42:30;;;;;;;20.27;11.90;;;;;;;;;;7392038;19;19998;-69
2022/10/14 01:45:05;;;;;;;19.48;11.63;;;;;;;;;;7394462;19;20003;-68
2022/10/14 01:47:33;;;;;;;19.65;11.38;;;;;;;;;;7393730;19;20432;-69
2022/10/14 01:50:03;;;;;;;20.65;11.95;;;;;;;;;;7393026;19;20389;-67
2022/10/14 01:52:35;;;;;;;20.45;12.32;;;;;;;;;;7391711;19;20022;-68
2022/10/14 01:55:04;;;;;;;19.83;11.68;;;;;;;;;;7392944;19;19999;-68
2022/10/14 01:57:34;;;;;;;24.20;11.52;;;;;;;;;;7391755;19;19999;-68
2022/10/14 02:00:01;;;;;;;20.08;12.10;;;;;;;;;;7390463;19;20459;-68
2022/10/14 02:02:26;;;;;;;17.20;10.98;;;;;;;;;;7393370;19;20007;-68
2022/10/14 02:04:54;;;;;;;23.05;11.95;;;;;;;;;;7392025;19;19998;-68
2022/10/14 02:07:23;;;;;;;19.08;11.50;;;;;;;;;;7391268;19;20414;-68
2022/10/14 02:09:51;;;;;;;20.80;11.10;;;;;;;;;;7391711;19;20496;-68
2022/10/14 02:12:29;;;;;;;19.80;11.27;;;;;;;;;;7390508;19;20003;-68
2022/10/14 02:15:21;;;;;;;23.35;11.65;;;;;;;;;;7391823;19;20396;-68
2022/10/14 02:18:04;;;;;;;18.02;11.10;;;;;;;;;;7390175;19;20030;-68
2022/10/14 02:20:38;;;;;;;21.02;10.75;;;;;;;;;;7388681;19;20003;-68
2022/10/14 02:23:12;;;;;;;20.20;10.68;;;;;;;;;;7390459;19;20709;-68
2022/10/14 02:25:40;;;;;;;22.65;11.05;;;;;;;;;;7391559;19;20334;-68
2022/10/14 02:28:09;;;;;;;18.45;11.05;;;;;;;;;;7392985;19;20007;-68
2022/10/14 02:30:40;;;;;;;19.80;11.00;;;;;;;;;;7390436;19;20090;-68
2022/10/14 02:33:06;;;;;;;19.95;11.05;;;;;;;;;;7390158;19;20012;-68
2022/10/14 02:35:33;;;;;;;20.45;10.88;;;;;;;;;;7390013;19;20027;-68
2022/10/14 02:38:00;;;;;;;16.60;10.45;;;;;;;;;;7390345;19;20007;-68
2022/10/14 02:40:36;;;;;;;19.70;10.63;;;;;;;;;;7390029;19;20480;-69
2022/10/14 02:43:02;;;;;;;20.65;10.98;;;;;;;;;;7389653;19;20480;-68
2022/10/14 02:45:28;;;;;;;20.65;11.38;;;;;;;;;;7390872;19;19999;-69
2022/10/14 02:47:53;;;;;;;20.40;11.45;;;;;;;;;;7390729;19;20058;-67
2022/10/14 02:50:19;;;;;;;18.42;11.38;;;;;;;;;;7389954;19;20014;-67
2022/10/14 02:52:45;;;;;;;19.88;11.25;;;;;;;;;;7392870;19;20007;-68
2022/10/14 02:55:10;;;;;;;19.50;11.68;;;;;;;;;;7390424;19;20019;-69
2022/10/14 02:57:36;;;;;;;18.70;10.68;;;;;;;;;;7388201;19;20017;-68
2022/10/14 03:00:02;;;;;;;23.35;11.95;;;;;;;;;;7389765;19;20010;-68
2022/10/14 03:02:27;;;;;;;21.25;11.38;;;;;;;;;;7388632;19;20006;-68
2022/10/14 03:04:52;;;;;;;21.33;12.45;;;;;;;;;;7390264;19;20346;-68
2022/10/14 03:07:17;;;;;;;18.98;11.82;;;;;;;;;;7390052;19;20006;-68
2022/10/14 03:09:43;;;;;;;20.25;11.30;;;;;;;;;;7390426;19;20007;-68
2022/10/14 03:12:08;;;;;;;20.98;12.70;;;;;;;;;;7388444;19;20436;-68
2022/10/14 03:14:33;;;;;;;21.20;11.85;;;;;;;;;;7389946;19;20026;-67
2022/10/14 03:16:59;;;;;;;21.35;11.95;;;;;;;;;;7388347;19;20080;-70
2022/10/14 03:19:24;;;;;;;19.77;12.25;;;;;;;;;;7389834;19;20080;-68
2022/10/14 03:21:50;;;;;;;19.83;12.68;;;;;;;;;;7387001;19;19998;-68
2022/10/14 03:24:15;;;;;;;22.83;11.90;;;;;;;;;;7389637;19;20023;-68
2022/10/14 03:26:41;;;;;;;20.30;12.98;;;;;;;;;;7389498;19;20436;-68
2022/10/14 03:29:06;;;;;;;23.15;13.32;;;;;;;;;;7389253;19;20009;-68
2022/10/14 03:31:31;;;;;;;21.45;12.65;;;;;;;;;;7386560;19;20026;-68
2022/10/14 03:33:57;;;;;;;22.58;12.48;;;;;;;;;;7389442;19;20531;-67
2022/10/14 03:36:22;;;;;;;22.80;13.23;;;;;;;;;;7387653;19;20070;-68
2022/10/14 03:38:47;;;;;;;21.13;12.73;;;;;;;;;;7391341;19;20018;-67
2022/10/14 03:41:13;;;;;;;22.25;12.50;;;;;;;;;;7386932;19;19998;-67
2022/10/14 03:43:38;;;;;;;21.60;13.13;;;;;;;;;;7389545;19;20413;-68
2022/10/14 03:46:04;;;;;;;22.40;12.70;;;;;;;;;;7390419;19;20083;-68
2022/10/14 03:48:29;;;;;;;23.63;12.60;;;;;;;;;;7389831;19;20468;-67
2022/10/14 03:50:54;;;;;;;25.15;13.07;;;;;;;;;;7388226;19;20536;-68
2022/10/14 03:53:19;;;;;;;23.33;13.52;;;;;;;;;;7388258;19;20002;-68
2022/10/14 03:55:45;;;;;;;23.45;13.77;;;;;;;;;;7387626;19;20002;-69
2022/10/14 03:58:11;;;;;;;24.67;13.40;;;;;;;;;;7386751;19;19998;-68
2022/10/14 04:00:36;;;;;;;23.20;13.45;;;;;;;;;;7384130;19;19998;-68
2022/10/14 04:03:02;;;;;;;22.63;13.55;;;;;;;;;;7386209;19;19999;-67
2022/10/14 04:05:32;;;;;;;25.75;13.98;;;;;;;;;;7389408;19;20014;-67
2022/10/14 04:07:59;;;;;;;24.05;13.75;;;;;;;;;;7389165;19;20069;-68
2022/10/14 04:10:25;;;;;;;24.42;14.55;;;;;;;;;;7387985;19;20070;-67
2022/10/14 04:12:52;;;;;;;23.58;13.07;;;;;;;;;;7392916;19;20376;-68
2022/10/14 04:15:17;;;;;;;24.55;13.05;;;;;;;;;;7389382;19;19998;-66
2022/10/14 04:17:42;;;;;;;28.20;14.10;;;;;;;;;;7391895;19;20014;-67
2022/10/14 04:20:09;;;;;;;22.30;14.25;;;;;;;;;;7392404;19;19990;-67
2022/10/14 04:22:34;;;;;;;24.77;13.82;;;;;;;;;;7390527;19;20484;-67
2022/10/14 04:24:59;;;;;;;21.83;13.80;;;;;;;;;;7327462;19;19994;-67
2022/10/14 04:27:24;;;;;;;26.75;15.00;;;;;;;;;;7389780;19;19998;-68
2022/10/14 04:29:51;;;;;;;26.60;14.48;;;;;;;;;;7394564;19;20010;-68
2022/10/14 04:32:17;;;;;;;28.48;14.63;;;;;;;;;;7398301;19;20005;-68
2022/10/14 04:34:42;;;;;;;31.45;16.00;;;;;;;;;;7396667;19;19995;-70
2022/10/14 04:37:07;;;;;;;23.45;14.10;;;;;;;;;;7396884;19;20006;-67
2022/10/14 04:39:33;;;;;;;25.05;15.15;;;;;;;;;;7396489;19;19995;-69
2022/10/14 04:41:58;;;;;;;25.38;14.85;;;;;;;;;;7392308;19;20058;-67
2022/10/14 04:44:23;;;;;;;25.67;14.57;;;;;;;;;;7396715;19;20010;-67
2022/10/14 04:46:49;;;;;;;33.45;15.65;;;;;;;;;;7394591;19;20023;-68
2022/10/14 04:49:15;;;;;;;26.48;14.25;;;;;;;;;;7395457;19;20022;-68
2022/10/14 04:51:41;;;;;;;24.50;13.85;;;;;;;;;;7389309;19;19995;-67
2022/10/14 04:54:06;;;;;;;22.05;13.85;;;;;;;;;;7395238;19;20010;-68
2022/10/14 04:56:31;;;;;;;24.85;13.38;;;;;;;;;;7393321;19;20002;-68
2022/10/14 04:58:56;;;;;;;24.60;14.23;;;;;;;;;;7396101;19;20351;-67
2022/10/14 05:01:22;;;;;;;22.08;12.85;;;;;;;;;;7393959;19;19999;-67
2022/10/14 05:03:47;;;;;;;21.00;12.55;;;;;;;;;;7394449;19;20010;-67
2022/10/14 05:06:12;;;;;;;22.95;13.45;;;;;;;;;;7392783;19;20003;-68
2022/10/14 05:08:38;;;;;;;21.20;13.43;;;;;;;;;;7397599;19;20059;-67
2022/10/14 05:11:03;;;;;;;24.35;13.82;;;;;;;;;;7393029;19;20337;-68
2022/10/14 05:13:29;;;;;;;24.83;13.43;;;;;;;;;;7398122;19;19995;-68
2022/10/14 05:15:55;;;;;;;21.10;13.23;;;;;;;;;;7397977;19;20421;-68
2022/10/14 05:18:21;;;;;;;26.05;13.27;;;;;;;;;;7393407;19;19995;-68
2022/10/14 05:20:46;;;;;;;21.05;12.88;;;;;;;;;;7395205;19;20072;-67
2022/10/14 05:23:12;;;;;;;24.48;13.20;;;;;;;;;;7395974;19;20015;-68
2022/10/14 05:25:37;;;;;;;23.55;12.35;;;;;;;;;;7391525;19;20491;-70
2022/10/14 05:28:02;;;;;;;22.08;13.20;;;;;;;;;;7390145;19;20455;-70
2022/10/14 05:30:28;;;;;;;24.10;13.27;;;;;;;;;;7393228;19;20010;-70
2022/10/14 05:32:53;;;;;;;22.90;13.55;;;;;;;;;;7392236;19;19998;-69
2022/10/14 05:35:21;;;;;;;22.63;13.48;;;;;;;;;;7395586;19;19998;-68
2022/10/14 05:37:46;;;;;;;25.25;13.15;;;;;;;;;;7391465;19;20464;-69
2022/10/14 05:40:12;;;;;;;24.10;13.50;;;;;;;;;;7385513;19;20024;-70
2022/10/14 05:42:37;;;;;;;21.05;12.85;;;;;;;;;;7388717;19;20003;-69
2022/10/14 05:45:03;;;;;;;22.55;12.93;;;;;;;;;;7393033;19;20011;-68
2022/10/14 05:47:29;;;;;;;19.17;11.85;;;;;;;;;;7393963;19;20464;-69
2022/10/14 05:49:54;;;;;;;20.35;12.75;;;;;;;;;;7389680;19;20002;-69
2022/10/14 05:52:19;;;;;;;20.30;11.50;;;;;;;;;;7390770;19;20006;-70
2022/10/14 05:54:45;;;;;;;20.77;12.77;;;;;;;;;;7393093;19;19999;-69
2022/10/14 05:57:13;;;;;;;21.40;12.02;;;;;;;;;;7394605;19;20002;-69
2022/10/14 05:59:38;;;;;;;21.20;12.23;;;;;;;;;;7395982;19;20441;-68
2022/10/14 06:02:04;;;;;;;21.40;12.93;;;;;;;;;;7391086;19;20003;-69
2022/10/14 06:04:29;;;;;;;21.63;12.13;;;;;;;;;;7396533;19;20002;-68
2022/10/14 06:06:54;;;;;;;20.63;12.57;;;;;;;;;;7395947;19;20039;-69
2022/10/14 06:09:20;;;;;;;20.65;12.50;;;;;;;;;;7395435;19;19995;-69
2022/10/14 06:11:45;;;;;;;20.63;12.52;;;;;;;;;;7391967;19;20346;-68
2022/10/14 06:14:11;;;;;;;23.27;12.52;;;;;;;;;;7395603;19;20033;-68
2022/10/14 06:16:36;;;;;;;23.42;12.38;;;;;;;;;;7394828;19;20400;-68
2022/10/14 06:19:02;;;;;;;18.45;12.18;;;;;;;;;;7392776;19;19999;-68
2022/10/14 06:21:27;;;;;;;22.75;12.55;;;;;;;;;;7391751;19;20003;-68
2022/10/14 06:23:53;;;;;;;21.15;12.27;;;;;;;;;;7392577;19;20003;-70
2022/10/14 06:26:18;;;;;;;21.73;12.10;;;;;;;;;;7384081;19;20002;-69
2022/10/14 06:28:43;;;;;;;23.42;11.95;;;;;;;;;;7392261;19;20012;-70
2022/10/14 06:31:09;;;;;;;19.85;10.75;;;;;;;;;;7389675;19;20011;-68
2022/10/14 06:33:34;;;;;;;16.23;10.60;;;;;;;;;;7392270;19;20010;-69
2022/10/14 06:36:02;;;;;;;19.83;10.52;;;;;;;;;;7392581;19;20017;-70
2022/10/14 06:38:29;;;;;;;19.60;10.27;;;;;;;;;;7385460;19;20032;-69
2022/10/14 06:41:03;;;;;;;16.42;9.95;;;;;;;;;;7392228;19;20031;-70
2022/10/14 06:43:29;;;;;;;18.90;10.68;;;;;;;;;;7389971;19;20014;-68
2022/10/14 06:45:58;;;;;;;20.10;10.20;;;;;;;;;;7390369;19;20011;-69
2022/10/14 06:48:23;;;;;;;17.73;10.05;;;;;;;;;;7391242;19;20546;-68
2022/10/14 06:50:48;;;;;;;22.48;11.10;;;;;;;;;;7391299;19;20074;-70
2022/10/14 06:53:14;;;;;;;21.25;10.55;;;;;;;;;;7384215;19;20002;-67
2022/10/14 06:55:39;;;;;;;18.83;10.48;;;;;;;;;;7391939;19;20023;-69
2022/10/14 06:58:04;;;;;;;19.90;10.85;;;;;;;;;;7390034;19;19994;-68
2022/10/14 07:00:30;;;;;;;19.40;10.50;;;;;;;;;;7392141;19;20104;-69
2022/10/14 07:02:58;;;;;;;18.30;11.20;;;;;;;;;;7393024;19;20005;-68
2022/10/14 07:05:26;;;;;;;20.77;9.80;;;;;;;;;;7391125;19;20006;-67
2022/10/14 07:07:52;;;;;;;21.77;10.70;;;;;;;;;;7390177;19;19994;-68
2022/10/14 07:10:17;;;;;;;19.48;10.88;;;;;;;;;;7391098;19;20348;-68
2022/10/14 07:12:43;;;;;;;19.50;10.50;;;;;;;;;;7390134;19;19991;-68
2022/10/14 07:15:08;;;;;;;15.77;9.30;;;;;;;;;;7284290;19;20003;-68
2022/10/14 07:17:34;;;;;;;19.88;9.68;;;;;;;;;;7390927;19;20549;-69
2022/10/14 07:19:59;;;;;;;18.55;10.15;;;;;;;;;;7390662;19;20006;-68
2022/10/14 07:22:24;;;;;;;20.50;9.98;;;;;;;;;;7390275;19;20013;-68
2022/10/14 07:24:50;;;;;;;15.25;9.77;;;;;;;;;;7388916;19;20447;-69
2022/10/14 07:27:15;;;;;;;17.08;9.45;;;;;;;;;;7391738;19;19994;-67
2022/10/14 07:29:41;;;;;;;21.17;10.30;;;;;;;;;;7390488;19;19994;-68
2022/10/14 07:32:07;;;;;;;20.10;10.52;;;;;;;;;;7391557;19;19995;-68
2022/10/14 07:34:35;;;;;;;18.33;9.52;;;;;;;;;;7390179;19;20438;-68
2022/10/14 07:37:00;;;;;;;15.55;9.52;;;;;;;;;;7392443;19;20001;-68
2022/10/14 07:39:27;;;;;;;20.40;11.00;;;;;;;;;;7389025;19;20394;-68
2022/10/14 07:41:55;;;;;;;19.00;9.82;;;;;;;;;;7386642;19;20019;-68
2022/10/14 07:44:20;;;;;;;18.55;9.88;;;;;;;;;;7390012;19;20016;-69
2022/10/14 07:46:46;;;;;;;16.42;9.45;;;;;;;;;;7391996;19;19999;-68
2022/10/14 07:49:17;;;;;;;18.80;9.93;;;;;;;;;;7392281;19;20027;-69
2022/10/14 07:51:43;;;;;;;18.10;10.15;;;;;;;;;;7390137;19;20006;-68
2022/10/14 07:54:13;;;;;;;17.30;10.05;;;;;;;;;;7391501;19;20467;-68
2022/10/14 07:56:43;;;;;;;19.88;9.52;;;;;;;;;;7392118;19;20077;-68
2022/10/14 07:59:08;;;;;;;18.08;10.50;;;;;;;;;;7392037;19;20003;-68
2022/10/14 08:01:34;;;;;;;17.13;9.88;;;;;;;;;;7388256;19;20019;-68
2022/10/14 08:03:59;;;;;;;21.63;10.55;;;;;;;;;;7388860;19;20006;-68
2022/10/14 08:06:25;;;;;;;19.30;10.63;;;;;;;;;;7387676;19;20015;-68
2022/10/14 08:08:51;;;;;;;20.08;11.13;;;;;;;;;;7391648;19;20030;-68
2022/10/14 08:11:18;;;;;;;21.23;11.65;;;;;;;;;;7387817;19;20082;-68
2022/10/14 08:13:44;;;;;;;19.63;11.52;;;;;;;;;;7391942;19;20002;-68
2022/10/14 08:16:15;;;;;;;21.90;12.13;;;;;;;;;;7388649;19;20007;-67
2022/10/14 08:18:41;;;;;;;22.30;12.00;;;;;;;;;;7388000;19;20003;-67
2022/10/14 08:21:07;;;;;;;22.98;12.88;;;;;;;;;;7389401;19;20031;-67
2022/10/14 08:23:32;;;;;;;23.95;12.88;;;;;;;;;;7388832;19;20056;-69
2022/10/14 08:25:58;;;;;;;27.05;12.60;;;;;;;;;;7388773;19;19997;-67
2022/10/14 08:28:23;;;;;;;25.30;13.40;;;;;;;;;;7388666;19;20407;-68
2022/10/14 08:30:49;;;;;;;28.35;14.55;;;;;;;;;;7388954;19;20022;-67
2022/10/14 08:33:14;;;;;;;32.15;15.10;;;;;;;;;;7388134;19;20500;-69
2022/10/14 08:35:39;;;;;;;29.23;15.65;;;;;;;;;;7391058;19;20002;-68
2022/10/14 08:38:05;;;;;;;27.73;16.02;;;;;;;;;;7386022;19;20007;-68
2022/10/14 08:40:55;;;;;;;35.97;17.02;;;;;;;;;;7384921;19;20002;-67
2022/10/14 08:43:28;;;;;;;29.70;16.17;;;;;;;;;;7386659;19;20003;-67
2022/10/14 08:46:01;;;;;;;28.17;15.93;;;;;;;;;;7387790;19;20006;-68
2022/10/14 08:48:28;;;;;;;29.55;15.88;;;;;;;;;;7388493;19;20019;-68
2022/10/14 08:51:15;;;;;;;32.00;16.48;;;;;;;;;;7388043;19;20030;-68
2022/10/14 08:53:45;;;;;;;29.83;16.35;;;;;;;;;;7389245;19;20013;-68
2022/10/14 08:56:12;;;;;;;26.73;15.43;;;;;;;;;;7387017;19;20013;-68
2022/10/14 08:58:48;;;;;;;28.65;16.17;;;;;;;;;;7387421;19;20062;-68
2022/10/14 09:01:27;;;;;;;30.08;15.93;;;;;;;;;;7387178;19;20010;-68
2022/10/14 09:03:57;;;;;;;28.92;16.67;;;;;;;;;;7386146;19;20425;-68
2022/10/14 09:06:28;;;;;;;31.90;16.38;;;;;;;;;;7387799;19;20078;-67
2022/10/14 09:09:07;;;;;;;31.60;15.55;;;;;;;;;;7387174;19;20118;-68
2022/10/14 09:11:42;;;;;;;32.28;15.75;;;;;;;;;;7385075;19;20038;-68
2022/10/14 09:14:15;;;;;;;28.65;15.70;;;;;;;;;;7387034;19;20030;-68
2022/10/14 09:16:41;;;;;;;27.50;15.13;;;;;;;;;;7394829;19;19999;-68
2022/10/14 09:19:30;;;;;;;26.90;16.25;;;;;;;;;;7394339;19;20009;-68
2022/10/14 09:21:57;;;;;;;25.73;15.32;;;;;;;;;;7391561;19;20042;-68
2022/10/14 09:24:34;;;;;;;29.88;16.20;;;;;;;;;;7397147;19;20348;-68
2022/10/14 09:27:20;;;;;;;25.17;15.38;;;;;;;;;;7396541;19;20401;-69
2022/10/14 09:29:49;;;;;;;27.30;15.68;;;;;;;;;;7397607;19;19998;-69
2022/10/14 09:32:30;;;;;;;22.58;15.35;;;;;;;;;;7393092;19;20013;-68
2022/10/14 09:34:56;;;;;;;;;;;;;;;;;;7396576;19;20091;-68
2022/10/14 09:37:30;;;;;;;23.08;14.55;;;;;;;;;;7393652;19;19949;-68
2022/10/14 09:40:00;;;;;;;23.23;14.65;;;;;;;;;;7393826;19;20005;-67
2022/10/14 09:42:43;;;;;;;27.65;14.65;;;;;;;;;;7393010;19;20007;-68
2022/10/14 09:45:15;;;;;;;23.02;14.00;;;;;;;;;;7393734;19;20005;-69
2022/10/14 09:47:54;;;;;;;28.20;14.13;;;;;;;;;;7391764;19;19998;-67
2022/10/14 09:50:25;;;;;;;20.35;13.68;;;;;;;;;;7392242;19;20070;-70
2022/10/14 09:53:03;;;;;;;23.50;14.25;;;;;;;;;;7393344;19;20001;-67
2022/10/14 09:55:30;;;;;;;19.80;12.82;;;;;;;;;;7391475;19;20006;-69
2022/10/14 09:58:02;;;;;;;25.30;12.98;;;;;;;;;;7390481;19;20027;-67
2022/10/14 10:00:29;;;;;;;20.77;12.63;;;;;;;;;;7391879;19;20023;-67
2022/10/14 10:02:55;;;;;;;20.08;11.77;;;;;;;;;;7391209;19;20468;-68
2022/10/14 10:05:27;;;;;;;24.02;12.52;;;;;;;;;;7392672;19;19999;-68
2022/10/14 10:08:19;;;;;;;23.50;13.52;;;;;;;;;;7387386;19;20002;-68
2022/10/14 10:11:09;;;;;;;19.98;11.43;;;;;;;;;;7387716;19;20030;-68
2022/10/14 10:13:53;;;;;;;21.00;12.40;;;;;;;;;;7391312;19;20003;-67
2022/10/14 10:16:26;;;;;;;22.95;12.40;;;;;;;;;;7391848;19;20366;-68
2022/10/14 10:18:54;;;;;;;23.00;12.77;;;;;;;;;;7392288;19;20026;-68
2022/10/14 10:21:32;;;;;;;19.08;11.98;;;;;;;;;;7391007;19;20364;-67
2022/10/14 10:24:02;;;;;;;21.27;12.35;;;;;;;;;;7391887;19;19999;-68
2022/10/14 10:26:31;;;;;;;24.77;12.30;;;;;;;;;;7390950;19;20346;-68
2022/10/14 10:28:58;;;;;;;21.90;12.77;;;;;;;;;;7390366;19;20835;-68
2022/10/14 10:31:50;;;;;;;26.63;12.70;;;;;;;;;;7386983;19;20037;-68
2022/10/14 10:34:43;;;;;;;16.35;11.60;;;;;;;;;;7393334;19;20064;-68
2022/10/14 10:37:32;;;;;;;23.38;12.57;;;;;;;;;;7391077;19;20007;-70
2022/10/14 10:40:15;;;;;;;23.13;11.50;;;;;;;;;;7390662;19;20024;-68
2022/10/14 10:42:47;;;;;;;17.00;11.50;;;;;;;;;;7389769;19;20072;-67
2022/10/14 10:45:15;;;;;;;17.48;11.40;;;;;;;;;;7390313;19;20082;-68
2022/10/14 10:48:10;;;;;;;20.17;11.55;;;;;;;;;;7390252;19;20018;-69
2022/10/14 10:51:07;;;;;;;25.45;11.27;;;;;;;;;;7387300;19;20006;-68
2022/10/14 10:53:50;;;;;;;17.30;11.18;;;;;;;;;;7390314;19;20552;-67
2022/10/14 10:56:44;;;;;;;18.45;11.30;;;;;;;;;;7389730;19;20539;-68
2022/10/14 10:59:37;;;;;;;17.70;10.23;;;;;;;;;;7390759;19;20002;-67
2022/10/14 11:02:44;;;;;;;18.05;10.63;;;;;;;;;;7390227;19;20106;-67
2022/10/14 11:05:28;;;;;;;15.30;9.73;;;;;;;;;;7389709;19;20468;-67
2022/10/14 11:14:35;;;;;;;16.65;8.77;;;;;;;;;;7394123;19;20018;-68
2022/10/14 11:17:41;;;;;;;17.35;8.65;;;;;;;;;;7387743;19;20002;-69
2022/10/14 11:20:40;;;;;;;18.77;9.32;;;;;;;;;;7386817;19;20747;-68
2022/10/14 11:23:11;;;;;;;13.98;9.27;;;;;;;;;;7388753;19;20345;-69
2022/10/14 11:25:47;;;;;;;;;;;;;;;;;;7388691;19;20003;-68
2022/10/14 11:28:25;;;;;;;18.23;9.05;;;;;;;;;;7389045;19;19938;-68
2022/10/14 11:31:02;;;;;;;17.27;9.45;;;;;;;;;;7388009;19;20072;-69
2022/10/14 11:33:34;;;;;;;21.65;11.43;;;;;;;;;;7389917;19;20369;-68
2022/10/14 11:36:36;;;;;;;17.13;11.23;;;;;;;;;;7389267;19;20003;-67
2022/10/14 11:39:20;;;;;;;22.13;10.85;;;;;;;;;;7386779;19;20464;-68
2022/10/14 11:42:13;;;;;;;21.10;10.77;;;;;;;;;;7386468;19;20058;-68
2022/10/14 11:44:42;;;;;;;21.55;11.95;;;;;;;;;;7390869;19;20093;-68
2022/10/14 11:47:21;;;;;;;19.75;11.90;;;;;;;;;;7388410;19;20006;-69
2022/10/14 11:49:49;;;;;;;25.13;11.00;;;;;;;;;;7388424;19;19995;-68
2022/10/14 11:52:24;;;;;;;19.85;11.70;;;;;;;;;;7387516;19;20003;-68
2022/10/14 11:54:54;;;;;;;19.92;10.88;;;;;;;;;;7388569;19;20069;-68
2022/10/14 11:57:40;;;;;;;20.88;11.35;;;;;;;;;;7388363;19;20007;-68
2022/10/14 12:00:26;;;;;;;20.90;11.25;;;;;;;;;;7388171;19;20007;-69
2022/10/14 12:03:14;;;;;;;20.33;10.25;;;;;;;;;;7387526;19;19994;-68
2022/10/14 12:05:45;;;;;;;23.10;10.93;;;;;;;;;;7388650;19;20006;-69
2022/10/14 12:08:25;;;;;;;21.50;11.52;;;;;;;;;;7388986;19;20301;-68
2022/10/14 12:10:58;;;;;;;18.98;10.77;;;;;;;;;;7386707;19;20497;-67
2022/10/14 12:13:46;;;;;;;17.20;9.75;;;;;;;;;;7386878;19;19998;-68
2022/10/14 12:16:15;;;;;;;19.17;10.52;;;;;;;;;;7391785;19;19990;-69
2022/10/14 12:18:43;;;;;;;19.02;9.75;;;;;;;;;;7388931;19;19995;-69
2022/10/14 12:21:33;;;;;;;21.15;9.75;;;;;;;;;;7383689;19;20019;-68
2022/10/14 12:24:07;;;;;;;24.13;10.48;;;;;;;;;;7390073;19;19995;-69
2022/10/14 12:26:45;;;;;;;16.85;10.32;;;;;;;;;;7391476;19;20425;-68
2022/10/14 12:29:18;;;;;;;20.63;10.90;;;;;;;;;;7388393;19;20381;-68
2022/10/14 12:31:49;;;;;;;19.45;11.07;;;;;;;;;;7384845;19;20002;-69
2022/10/14 12:34:30;;;;;;;17.90;9.75;;;;;;;;;;7390431;19;20002;-69
2022/10/14 12:36:55;;;;;;;18.83;11.02;;;;;;;;;;7387891;19;20006;-67
2022/10/14 12:39:28;;;;;;;17.33;10.32;;;;;;;;;;7387424;19;19999;-66
2022/10/14 12:42:07;;;;;;;21.52;10.15;;;;;;;;;;7387343;19;20030;-67
2022/10/14 12:44:51;;;;;;;20.38;10.50;;;;;;;;;;7390813;19;20093;-68
2022/10/14 12:47:20;;;;;;;15.60;10.05;;;;;;;;;;7384981;19;20081;-68
2022/10/14 12:49:49;;;;;;;20.85;10.93;;;;;;;;;;7385355;19;20284;-67
2022/10/14 12:52:22;;;;;;;18.48;10.50;;;;;;;;;;7393433;19;20468;-68
2022/10/14 12:54:48;;;;;;;20.95;11.30;;;;;;;;;;7394844;19;20002;-68
2022/10/14 12:57:25;;;;;;;18.98;10.93;;;;;;;;;;7394048;19;20026;-69
2022/10/14 12:59:51;;;;;;;23.55;11.57;;;;;;;;;;7393953;19;19994;-69
2022/10/14 13:02:34;;;;;;;19.70;11.70;;;;;;;;;;7392974;19;19998;-68
2022/10/14 13:05:07;;;;;;;19.90;10.68;;;;;;;;;;7392526;19;20321;-70
2022/10/14 13:07:42;;;;;;;22.13;11.27;;;;;;;;;;7398158;19;19998;-68
2022/10/14 13:10:47;;;;;;;18.13;11.15;;;;;;;;;;7391486;19;20002;-68
2022/10/14 13:13:41;;;;;;;16.92;10.95;;;;;;;;;;7394166;19;20502;-67
2022/10/14 13:16:24;;;;;;;21.02;11.18;;;;;;;;;;7397611;19;19994;-67
2022/10/14 13:18:57;;;;;;;21.23;10.95;;;;;;;;;;7391792;19;20532;-68
2022/10/14 13:21:35;;;;;;;18.00;11.25;;;;;;;;;;7389713;19;20479;-68
2022/10/14 13:24:15;;;;;;;18.27;10.73;;;;;;;;;;7393791;19;20062;-68
2022/10/14 13:27:00;;;;;;;17.42;11.25;;;;;;;;;;7393549;19;20003;-69
2022/10/14 13:29:38;;;;;;;23.50;11.95;;;;;;;;;;7391514;19;20002;-67
2022/10/14 13:32:33;;;;;;;26.75;11.93;;;;;;;;;;7389788;19;20448;-68
2022/10/14 13:35:23;;;;;;;20.80;12.48;;;;;;;;;;7394182;19;20005;-67
2022/10/14 13:37:58;;;;;;;24.52;12.27;;;;;;;;;;7392483;19;20027;-68
2022/10/14 13:40:33;;;;;;;21.00;11.68;;;;;;;;;;7395691;19;19999;-68
2022/10/14 13:43:00;;;;;;;26.05;12.73;;;;;;;;;;7390610;19;20396;-69
2022/10/14 13:45:40;;;;;;;21.02;11.93;;;;;;;;;;7394193;19;20030;-67
2022/10/14 13:48:13;;;;;;;20.35;12.02;;;;;;;;;;7396244;19;20723;-66
2022/10/14 13:50:39;;;;;;;23.50;12.93;;;;;;;;;;7392195;19;20010;-67
2022/10/14 13:53:12;;;;;;;23.48;11.88;;;;;;;;;;7391702;19;20030;-67
2022/10/14 13:55:47;;;;;;;23.63;12.63;;;;;;;;;;7391193;19;19999;-68
2022/10/14 13:58:14;;;;;;;22.17;12.48;;;;;;;;;;7393604;19;20456;-68
2022/10/14 14:01:02;;;;;;;20.88;12.20;;;;;;;;;;7391531;19;19998;-69
2022/10/14 14:03:35;;;;;;;26.13;12.40;;;;;;;;;;7392090;19;19999;-68
2022/10/14 14:06:07;;;;;;;23.88;11.43;;;;;;;;;;7394665;19;19999;-67
2022/10/14 14:08:35;;;;;;;19.48;11.68;;;;;;;;;;7389519;19;20038;-67
2022/10/14 14:11:03;;;;;;;19.15;11.10;;;;;;;;;;7391249;19;20010;-68
2022/10/14 14:13:31;;;;;;;19.90;11.07;;;;;;;;;;7393723;19;20006;-67
2022/10/14 14:15:57;;;;;;;21.85;10.15;;;;;;;;;;7396173;19;19998;-67
2022/10/14 14:18:36;;;;;;;17.35;10.27;;;;;;;;;;7395003;19;19998;-69
2022/10/14 14:21:02;;;;;;;16.63;9.95;;;;;;;;;;7393422;19;19998;-68
2022/10/14 14:23:29;;;;;;;20.30;10.93;;;;;;;;;;7396427;19;20448;-68
2022/10/14 14:25:58;;;;;;;20.20;11.05;;;;;;;;;;7396883;19;20001;-68
2022/10/14 14:28:29;;;;;;;21.75;10.95;;;;;;;;;;7395439;19;20007;-67
2022/10/14 14:30:55;;;;;;;19.38;11.07;;;;;;;;;;7397416;19;20061;-68
2022/10/14 14:33:30;;;;;;;18.08;10.68;;;;;;;;;;7393684;19;20020;-68
2022/10/14 14:36:02;;;;;;;19.25;10.73;;;;;;;;;;7389147;19;20010;-68
2022/10/14 14:38:31;;;;;;;22.77;12.35;;;;;;;;;;7389040;19;20010;-68
2022/10/14 14:41:03;;;;;;;20.15;11.10;;;;;;;;;;7387751;19;20035;-68
2022/10/14 14:43:31;;;;;;;19.45;10.27;;;;;;;;;;7388044;19;19999;-67
2022/10/14 14:46:00;;;;;;;17.33;10.68;;;;;;;;;;7390384;19;20002;-67
2022/10/14 14:48:26;;;;;;;16.67;10.02;;;;;;;;;;7388453;19;20036;-68